Sugar Hill, Georgia
Current Conditions -  °F | °C
As of 7:53 PM on Friday 28 Nov 2014 (Local Time) from KGVL Reporting Station
Clear Clear  
Wind Chill: 36°   Ceiling: Unl
Heat Index: 39°   Visibility: 10mi
Dew Point: 19°   Wind: 5mph
Humidity: 45%   Direction: 240°WSW
Pressure: 30.28"   Gusts: NA
Location:  34.1183°N, 84.0234°W
Report Text: KGVL 290053Z AUTO 24004KT 10SM CLR 04/M07 A3028 RMK AO2 SLP261 T00391072
Loading
Personal Weather Stations






























Interactive Weather Map New forecast layout! Learn more

10-Day Weather Forecast

Advertisements
Track Severe Weather on mobile